Time;durP1;ratioP1;P1;durP2;ratioP2;P2;SDS_P1;SDS_P2;PMS_P1;PMS_P2;Temp;Humidity;BMP_temperature;BMP_pressure;BME280_temperature;BME280_humidity;BME280_pressure;Samples;Min_cycle;Max_cycle;Signal;HPM_P1;HPM_P2
2021/08/06 00:00:15;;;;;;;;;;;;;;;22.44;100.00;95587.34;5011005;28;20126;-58
2021/08/06 00:02:43;;;;;;;4.78;2.10;;;;;;;22.18;100.00;95594.91;5009897;28;19952;-57
2021/08/06 00:05:12;;;;;;;2.75;2.20;;;;;;;21.94;100.00;95594.13;5004054;28;20077;-54
2021/08/06 00:07:41;;;;;;;3.95;2.20;;;;;;;22.13;100.00;95592.09;5012004;28;20081;-55
2021/08/06 00:10:10;;;;;;;3.78;2.30;;;;;;;22.14;100.00;95596.41;5009605;28;20063;-56
2021/08/06 00:12:39;;;;;;;2.65;2.10;;;;;;;21.68;100.00;95595.47;5007715;28;20074;-57
2021/08/06 00:15:09;;;;;;;3.28;2.42;;;;;;;21.14;100.00;95594.75;5009008;28;20073;-51
2021/08/06 00:17:38;;;;;;;2.30;2.03;;;;;;;21.44;100.00;95593.84;5009996;28;20073;-57
2021/08/06 00:20:07;;;;;;;5.45;2.28;;;;;;;21.17;100.00;95598.84;5011029;28;20081;-53
2021/08/06 00:22:36;;;;;;;2.78;2.20;;;;;;;20.64;100.00;95600.47;5004393;28;20073;-58
2021/08/06 00:25:05;;;;;;;3.58;2.00;;;;;;;21.25;100.00;95590.44;5009115;28;20072;-58
2021/08/06 00:27:34;;;;;;;3.67;2.05;;;;;;;20.99;100.00;95592.53;5009497;28;20042;-54
2021/08/06 00:30:03;;;;;;;4.57;2.10;;;;;;;21.41;100.00;95588.97;5006626;28;20061;-55
2021/08/06 00:32:33;;;;;;;2.72;1.98;;;;;;;21.36;100.00;95589.66;5009646;28;20081;-51
2021/08/06 00:35:01;;;;;;;5.45;2.10;;;;;;;22.00;100.00;95587.00;5011252;28;20531;-56
2021/08/06 00:37:29;;;;;;;4.15;1.80;;;;;;;21.83;100.00;95592.28;5009289;28;20061;-54
2021/08/06 00:39:58;;;;;;;3.95;1.95;;;;;;;22.09;100.00;95590.13;5009516;28;20072;-52
2021/08/06 00:42:26;;;;;;;8.32;2.38;;;;;;;22.10;100.00;95584.53;5009664;28;20073;-54
2021/08/06 00:44:55;;;;;;;5.60;1.90;;;;;;;22.17;100.00;95587.09;5007650;28;20061;-55
2021/08/06 00:47:23;;;;;;;4.28;2.10;;;;;;;21.97;100.00;95582.09;5008113;28;20093;-56
2021/08/06 00:49:53;;;;;;;3.22;2.10;;;;;;;22.28;100.00;95583.56;5009315;28;20080;-57
2021/08/06 00:52:22;;;;;;;2.35;2.15;;;;;;;22.23;100.00;95586.16;5010338;28;20069;-56
2021/08/06 00:54:51;;;;;;;4.45;2.13;;;;;;;22.78;100.00;95574.78;5007629;28;20528;-57
2021/08/06 00:57:19;;;;;;;3.03;2.17;;;;;;;23.02;100.00;95582.72;5007134;28;20073;-51
2021/08/06 00:59:48;;;;;;;3.63;2.28;;;;;;;23.03;100.00;95577.09;5006966;28;20065;-51
2021/08/06 01:02:18;;;;;;;3.63;2.10;;;;;;;22.96;100.00;95579.16;5007626;28;20100;-54
2021/08/06 01:04:51;;;;;;;3.75;1.92;;;;;;;22.61;100.00;95582.00;5010485;28;20074;-52
2021/08/06 01:07:24;;;;;;;3.15;2.13;;;;;;;22.83;100.00;95580.25;5005608;28;20089;-57
2021/08/06 01:09:55;;;;;;;5.53;2.00;;;;;;;22.42;100.00;95579.53;5011957;28;20076;-57
2021/08/06 01:12:27;;;;;;;3.28;1.90;;;;;;;22.67;100.00;95571.09;5007213;28;20057;-57
2021/08/06 01:14:59;;;;;;;2.97;2.15;;;;;;;22.37;100.00;95575.94;5009011;28;20061;-53
2021/08/06 01:17:30;;;;;;;3.97;1.98;;;;;;;23.06;100.00;95571.25;5006291;28;20078;-53
2021/08/06 01:20:03;;;;;;;2.70;2.08;;;;;;;22.23;100.00;95575.41;5009750;28;20078;-55
2021/08/06 01:22:40;;;;;;;2.45;2.00;;;;;;;22.83;100.00;95566.00;5007080;28;20465;-57
2021/08/06 01:25:11;;;;;;;3.05;1.90;;;;;;;22.74;100.00;95570.94;5006394;28;20084;-51
2021/08/06 01:27:43;;;;;;;4.53;2.10;;;;;;;22.50;100.00;95575.63;5006418;28;20082;-55
2021/08/06 01:30:13;;;;;;;3.00;1.80;;;;;;;22.40;100.00;95570.91;5007965;28;20078;-55
2021/08/06 01:32:42;;;;;;;3.05;1.92;;;;;;;22.21;100.00;95562.22;5007086;28;20074;-54
2021/08/06 01:35:11;;;;;;;2.42;1.90;;;;;;;21.90;100.00;95563.44;5007034;28;20077;-55
2021/08/06 01:37:40;;;;;;;2.60;1.95;;;;;;;22.31;100.00;95561.59;5010030;28;20524;-53
2021/08/06 01:40:10;;;;;;;5.25;1.92;;;;;;;22.16;100.00;95558.59;5005847;28;20065;-56
2021/08/06 01:42:45;;;;;;;3.40;2.00;;;;;;;21.43;100.00;95560.84;5005110;28;20100;-57
2021/08/06 01:45:19;;;;;;;3.08;2.10;;;;;;;21.83;100.00;95568.13;5000616;28;20069;-51
2021/08/06 01:47:49;;;;;;;4.18;2.00;;;;;;;21.35;100.00;95563.06;5008538;28;20068;-55
2021/08/06 01:50:23;;;;;;;3.92;2.40;;;;;;;20.52;100.00;95571.00;5011322;28;20084;-56
2021/08/06 01:52:59;;;;;;;4.05;2.28;;;;;;;21.07;100.00;95568.06;5005336;28;20080;-56
2021/08/06 01:55:31;;;;;;;2.33;2.00;;;;;;;21.28;100.00;95560.47;5008182;28;20450;-56
2021/08/06 01:58:02;;;;;;;4.63;2.15;;;;;;;21.26;100.00;95566.06;5007255;28;20065;-55
2021/08/06 02:00:31;;;;;;;4.63;2.10;;;;;;;21.41;100.00;95562.16;5006373;28;20065;-49
2021/08/06 02:03:00;;;;;;;4.20;1.90;;;;;;;21.10;100.00;95558.75;5005486;28;20713;-54
2021/08/06 02:05:29;;;;;;;4.18;2.10;;;;;;;20.85;100.00;95559.78;5006041;28;20126;-55
2021/08/06 02:07:58;;;;;;;2.83;2.00;;;;;;;20.44;100.00;95560.59;5006732;28;20088;-52
2021/08/06 02:10:27;;;;;;;2.22;2.03;;;;;;;20.52;100.00;95556.78;5006609;28;20095;-54
2021/08/06 02:12:56;;;;;;;2.40;2.00;;;;;;;20.77;100.00;95559.28;5006628;28;20069;-50
2021/08/06 02:15:25;;;;;;;3.03;2.10;;;;;;;20.62;100.00;95551.69;5009862;28;20077;-52
2021/08/06 02:17:54;;;;;;;5.00;2.30;;;;;;;20.52;100.00;95552.25;5005733;28;20471;-52
2021/08/06 02:20:24;;;;;;;3.22;2.20;;;;;;;21.03;100.00;95547.31;4986838;28;20077;-57
2021/08/06 02:22:53;;;;;;;2.97;2.10;;;;;;;20.99;100.00;95538.94;5008784;28;20598;-54
2021/08/06 02:25:23;;;;;;;3.40;1.90;;;;;;;20.90;100.00;95543.00;5005929;28;20465;-51
2021/08/06 02:27:52;;;;;;;4.13;2.20;;;;;;;21.22;100.00;95539.97;5007060;28;20465;-56
2021/08/06 02:30:21;;;;;;;3.33;2.33;;;;;;;20.54;100.00;95539.44;5005199;28;20520;-52
2021/08/06 02:32:52;;;;;;;2.80;2.20;;;;;;;20.82;100.00;95533.44;5006363;28;20062;-54
2021/08/06 02:35:20;;;;;;;3.00;2.35;;;;;;;20.91;100.00;95533.09;5004592;28;20081;-52
2021/08/06 02:37:50;;;;;;;3.58;2.50;;;;;;;20.42;100.00;95533.22;5010118;28;20441;-50
2021/08/06 02:40:19;;;;;;;2.40;2.20;;;;;;;20.94;100.00;95533.44;5006739;28;20058;-55
2021/08/06 02:42:48;;;;;;;2.30;2.10;;;;;;;20.80;100.00;95527.47;5006275;28;20070;-54
2021/08/06 02:45:16;;;;;;;2.90;2.00;;;;;;;20.37;100.00;95530.38;5004800;28;20073;-55
2021/08/06 02:47:45;;;;;;;4.53;2.20;;;;;;;20.53;100.00;95519.06;5004687;28;20088;-59
2021/08/06 02:50:15;;;;;;;3.03;2.35;;;;;;;20.45;100.00;95526.59;5006017;28;20528;-54
2021/08/06 02:52:44;;;;;;;5.43;2.25;;;;;;;20.34;100.00;95526.31;4999893;28;20073;-57
2021/08/06 02:55:13;;;;;;;2.55;2.10;;;;;;;20.86;100.00;95526.56;5003956;28;20480;-57
2021/08/06 02:57:41;;;;;;;4.65;1.98;;;;;;;21.18;100.00;95525.41;5009223;28;20072;-52
2021/08/06 03:00:11;;;;;;;3.83;2.80;;;;;;;20.87;100.00;95530.06;5001088;28;20074;-49
2021/08/06 03:02:40;;;;;;;4.97;2.22;;;;;;;20.82;100.00;95528.06;5006125;28;20058;-53
2021/08/06 03:05:09;;;;;;;3.55;2.50;;;;;;;21.06;100.00;95526.22;5011804;28;20096;-51
2021/08/06 03:07:38;;;;;;;4.60;2.78;;;;;;;20.47;100.00;95529.84;5012057;28;20467;-48
2021/08/06 03:10:08;;;;;;;2.67;2.10;;;;;;;20.39;100.00;95537.16;5012631;28;20443;-53
2021/08/06 03:12:36;;;;;;;2.60;2.35;;;;;;;20.66;100.00;95539.47;5007721;28;20065;-50
2021/08/06 03:15:06;;;;;;;2.78;2.40;;;;;;;20.85;100.00;95541.00;5012464;28;20070;-47
2021/08/06 03:17:34;;;;;;;4.97;2.60;;;;;;;20.53;100.00;95540.47;5011739;28;20066;-53
2021/08/06 03:20:03;;;;;;;2.85;2.50;;;;;;;20.77;100.00;95535.16;5013839;28;20081;-51
2021/08/06 03:22:32;;;;;;;6.05;2.70;;;;;;;20.41;100.00;95539.63;5011915;28;20452;-56
2021/08/06 03:25:02;;;;;;;3.40;2.35;;;;;;;20.43;100.00;95537.50;5009882;28;20081;-54
2021/08/06 03:27:31;;;;;;;4.53;2.17;;;;;;;20.72;100.00;95535.06;5012723;28;20054;-54
2021/08/06 03:29:59;;;;;;;3.88;2.70;;;;;;;20.68;100.00;95539.22;5012809;28;20444;-56
2021/08/06 03:32:28;;;;;;;5.78;2.72;;;;;;;21.10;100.00;95542.66;5010809;28;20089;-53
2021/08/06 03:34:57;;;;;;;4.18;2.50;;;;;;;19.90;100.00;95547.09;5015978;28;20089;-56
2021/08/06 03:37:25;;;;;;;10.55;2.70;;;;;;;19.87;100.00;95550.22;5009577;28;20065;-55
2021/08/06 03:39:54;;;;;;;4.22;2.58;;;;;;;20.49;100.00;95543.81;5011501;28;20069;-53
2021/08/06 03:42:24;;;;;;;5.03;2.47;;;;;;;20.74;100.00;95551.69;5012181;28;20066;-51
2021/08/06 03:44:52;;;;;;;4.63;2.50;;;;;;;20.77;100.00;95551.25;5012452;28;20534;-56
2021/08/06 03:47:21;;;;;;;6.65;2.95;;;;;;;20.66;100.00;95554.72;5012495;28;20611;-59
2021/08/06 03:49:50;;;;;;;4.43;2.75;;;;;;;21.12;100.00;95553.13;5015742;28;20126;-52
2021/08/06 03:52:18;;;;;;;3.20;2.90;;;;;;;21.01;100.00;95560.94;5012555;28;20066;-51
2021/08/06 03:54:47;;;;;;;5.15;3.08;;;;;;;21.26;100.00;95557.22;5011958;28;20542;-55
2021/08/06 03:57:16;;;;;;;6.30;3.03;;;;;;;20.56;100.00;95561.44;5011275;28;20080;-56
2021/08/06 03:59:47;;;;;;;3.72;2.58;;;;;;;20.90;100.00;95564.44;5013846;28;20543;-62
2021/08/06 04:02:16;;;;;;;3.63;2.85;;;;;;;21.33;100.00;95560.59;5008740;28;20081;-57
2021/08/06 04:04:46;;;;;;;5.00;3.03;;;;;;;21.50;100.00;95563.41;5015489;28;20074;-58
2021/08/06 04:07:18;;;;;;;3.85;2.53;;;;;;;21.49;100.00;95569.81;5007922;28;20033;-60
2021/08/06 04:09:47;;;;;;;4.30;2.40;;;;;;;21.26;100.00;95568.75;4999321;28;20052;-56
2021/08/06 04:12:17;;;;;;;3.20;2.65;;;;;;;21.42;100.00;95567.28;5012216;28;20050;-64
2021/08/06 04:14:48;;;;;;;6.07;2.60;;;;;;;21.48;100.00;95562.84;5010117;28;20081;-56
2021/08/06 04:17:17;;;;;;;3.75;2.30;;;;;;;21.27;100.00;95564.22;5004769;28;20463;-59
2021/08/06 04:19:47;;;;;;;6.23;2.70;;;;;;;21.25;100.00;95559.09;5013911;28;20092;-57
2021/08/06 04:22:17;;;;;;;4.90;2.70;;;;;;;22.15;100.00;95560.47;5008995;28;20048;-60
2021/08/06 04:24:47;;;;;;;5.18;2.67;;;;;;;21.62;100.00;95553.47;5007922;28;20042;-59
2021/08/06 04:27:17;;;;;;;3.05;2.72;;;;;;;22.25;100.00;95562.53;4980044;28;23811;-58
2021/08/06 04:29:50;;;;;;;7.38;3.20;;;;;;;23.65;100.00;95543.84;5005943;28;20120;-56
2021/08/06 04:32:19;;;;;;;5.68;3.00;;;;;;;23.59;100.00;95553.72;5005003;28;20089;-61
2021/08/06 04:34:48;;;;;;;3.38;2.78;;;;;;;25.42;86.10;95540.47;5011917;28;20121;-55
2021/08/06 04:37:17;;;;;;;2.97;2.20;;;;;;;24.90;84.45;95545.75;5010024;28;20062;-58
2021/08/06 04:39:46;;;;;;;4.43;3.08;;;;;;;26.52;72.29;95553.94;5008517;28;20068;-63
2021/08/06 04:42:15;;;;;;;3.10;2.78;;;;;;;25.54;77.12;95543.00;5008140;28;20069;-58
2021/08/06 04:44:43;;;;;;;3.90;2.80;;;;;;;26.01;72.89;95550.25;5006148;28;20073;-54
2021/08/06 04:47:13;;;;;;;4.82;2.63;;;;;;;25.68;73.88;95551.44;5009524;28;20077;-57
2021/08/06 04:49:42;;;;;;;9.38;2.78;;;;;;;27.99;58.95;95543.28;5011398;28;20069;-59
2021/08/06 04:52:10;;;;;;;6.60;2.42;;;;;;;27.06;62.23;95541.81;5007577;28;20080;-55
2021/08/06 04:54:39;;;;;;;4.20;2.30;;;;;;;27.63;60.53;95539.84;5009116;28;20072;-60
2021/08/06 04:57:08;;;;;;;3.58;2.38;;;;;;;27.25;62.81;95546.69;5005952;28;20073;-61
2021/08/06 04:59:38;;;;;;;5.00;2.60;;;;;;;27.74;60.96;95544.19;4989492;28;20490;-57
2021/08/06 05:02:08;;;;;;;3.65;2.20;;;;;;;26.79;65.64;95538.56;4994087;28;20489;-60
2021/08/06 05:04:39;;;;;;;2.80;2.10;;;;;;;26.81;70.30;95547.25;4993628;28;20030;-58
2021/08/06 05:07:08;;;;;;;4.43;2.80;;;;;;;27.16;64.95;95549.97;5006367;28;21641;-62
2021/08/06 05:09:38;;;;;;;2.70;2.47;;;;;;;28.96;54.44;95539.22;5002819;28;20135;-61
2021/08/06 05:12:09;;;;;;;3.75;2.30;;;;;;;27.69;59.41;95542.28;4994526;28;20042;-60
2021/08/06 05:14:39;;;;;;;3.92;2.15;;;;;;;28.57;53.87;95546.28;5009068;28;20520;-60
2021/08/06 05:17:09;;;;;;;4.43;2.10;;;;;;;28.01;56.45;95549.25;4992105;28;20076;-58
2021/08/06 05:19:39;;;;;;;3.45;2.13;;;;;;;28.21;58.60;95552.94;5007254;28;20567;-58
2021/08/06 05:22:08;;;;;;;4.03;1.98;;;;;;;27.54;62.00;95553.16;4990403;28;20049;-56
2021/08/06 05:24:39;;;;;;;3.17;1.95;;;;;;;27.66;59.84;95555.56;5007763;28;20103;-59
2021/08/06 05:27:09;;;;;;;2.42;1.77;;;;;;;25.34;80.23;95557.97;5008623;28;20069;-59
2021/08/06 05:29:39;;;;;;;3.13;1.95;;;;;;;24.93;87.55;95558.72;4989071;28;20042;-54
2021/08/06 05:32:09;;;;;;;4.15;2.00;;;;;;;24.75;93.79;95560.72;5009298;28;20093;-59
2021/08/06 05:34:40;;;;;;;3.97;1.80;;;;;;;24.93;90.52;95556.03;5007431;28;20175;-56
2021/08/06 05:37:09;;;;;;;4.15;2.00;;;;;;;25.74;84.43;95561.16;4961531;28;20054;-57
2021/08/06 05:39:39;;;;;;;2.78;1.95;;;;;;;25.80;83.03;95555.56;5009118;28;20040;-59
2021/08/06 05:42:08;;;;;;;6.82;3.10;;;;;;;25.66;86.31;95562.47;5005230;28;20061;-57
2021/08/06 05:44:38;;;;;;;5.47;3.47;;;;;;;25.06;96.99;95556.41;5005805;28;20512;-59
2021/08/06 05:47:07;;;;;;;4.80;3.00;;;;;;;25.07;95.36;95560.72;5010974;28;20572;-59
2021/08/06 05:49:36;;;;;;;6.35;4.13;;;;;;;24.78;100.00;95557.53;5008232;28;20050;-59
2021/08/06 05:52:07;;;;;;;5.05;3.03;;;;;;;24.97;94.99;95552.56;5011728;28;20038;-58
2021/08/06 05:54:37;;;;;;;7.95;4.40;;;;;;;24.86;97.15;95548.16;5000775;28;20471;-59
2021/08/06 05:57:07;;;;;;;8.50;4.70;;;;;;;24.71;99.96;95551.53;5005911;28;20399;-58
2021/08/06 05:59:36;;;;;;;6.13;3.08;;;;;;;24.24;100.00;95551.31;5004218;28;20042;-61
2021/08/06 06:02:05;;;;;;;3.80;2.72;;;;;;;24.26;100.00;95543.75;5009690;28;20092;-55
2021/08/06 06:04:35;;;;;;;5.10;2.35;;;;;;;24.50;100.00;95544.31;5004372;28;20038;-56
2021/08/06 06:07:05;;;;;;;3.90;2.10;;;;;;;23.88;100.00;95548.19;5006399;28;20038;-57
2021/08/06 06:09:36;;;;;;;2.47;2.10;;;;;;;24.17;100.00;95548.81;5006643;28;20049;-60
2021/08/06 06:12:06;;;;;;;3.22;1.80;;;;;;;23.94;100.00;95541.78;5008646;28;20053;-59
2021/08/06 06:14:36;;;;;;;3.42;1.90;;;;;;;24.00;100.00;95543.47;4992829;28;20050;-58
2021/08/06 06:17:06;;;;;;;4.67;2.13;;;;;;;24.67;100.00;95541.50;5002373;28;20042;-59
2021/08/06 06:19:36;;;;;;;;;;;;;;;24.67;100.00;95545.00;5007489;28;20041;-60
2021/08/06 06:22:05;;;;;;;3.70;2.30;;;;;;;24.91;100.00;95545.47;5006465;28;19933;-55
2021/08/06 06:24:36;;;;;;;6.90;3.20;;;;;;;24.55;100.00;95550.56;5005803;28;20524;-56
2021/08/06 06:27:09;;;;;;;8.90;3.78;;;;;;;25.22;100.00;95548.44;5004462;28;20126;-58
2021/08/06 06:29:38;;;;;;;6.03;2.80;;;;;;;25.47;100.00;95548.63;5005464;28;20049;-52
2021/08/06 06:32:08;;;;;;;4.90;2.10;;;;;;;26.11;94.27;95544.88;5006908;28;20092;-49
2021/08/06 06:34:36;;;;;;;6.07;2.17;;;;;;;25.47;100.00;95545.94;5008712;28;20406;-54
2021/08/06 06:37:05;;;;;;;1.98;1.77;;;;;;;24.45;100.00;95546.97;5008192;28;20516;-54
2021/08/06 06:39:35;;;;;;;2.45;2.00;;;;;;;24.99;100.00;95536.13;5006383;28;20069;-56
2021/08/06 06:42:03;;;;;;;3.38;2.10;;;;;;;24.68;100.00;95538.56;5007242;28;20068;-54
2021/08/06 06:44:32;;;;;;;5.82;2.20;;;;;;;25.03;100.00;95539.94;5007965;28;20069;-54
2021/08/06 06:47:00;;;;;;;7.57;1.90;;;;;;;26.37;94.08;95550.38;5009043;28;20104;-51
2021/08/06 06:49:29;;;;;;;4.00;2.20;;;;;;;26.65;91.25;95544.50;5007893;28;20142;-51
2021/08/06 06:51:57;;;;;;;3.63;2.03;;;;;;;27.20;85.56;95552.94;5004937;28;20066;-56
2021/08/06 06:54:26;;;;;;;2.92;2.03;;;;;;;26.86;91.58;95547.22;5005096;28;20074;-56
2021/08/06 06:56:56;;;;;;;3.88;2.05;;;;;;;27.15;88.92;95548.34;5007403;28;20553;-55
2021/08/06 06:59:24;;;;;;;;;;;;;;;26.92;90.25;95551.56;5006725;28;20096;-53
2021/08/06 07:01:54;;;;;;;12.00;2.38;;;;;;;26.99;87.75;95546.69;5009798;28;19972;-55
2021/08/06 07:04:22;;;;;;;2.17;1.70;;;;;;;26.82;84.07;95540.75;5007727;28;20620;-53
2021/08/06 07:06:51;;;;;;;3.35;1.90;;;;;;;27.25;83.58;95558.34;5009523;28;20073;-51
2021/08/06 07:09:19;;;;;;;2.83;1.90;;;;;;;27.24;80.44;95548.59;5006016;28;20106;-52
2021/08/06 07:11:48;;;;;;;3.65;1.80;;;;;;;27.41;81.38;95557.22;5005715;28;20065;-51
2021/08/06 07:14:18;;;;;;;4.07;1.80;;;;;;;27.79;77.74;95557.72;5007491;28;20497;-57
2021/08/06 07:16:46;;;;;;;2.75;1.80;;;;;;;26.97;80.43;95563.19;5009655;28;20096;-54
2021/08/06 07:19:15;;;;;;;4.13;2.20;;;;;;;27.56;71.96;95571.81;5009427;28;20061;-55
2021/08/06 07:21:46;;;;;;;2.13;1.83;;;;;;;28.33;64.47;95577.84;5009828;28;20078;-56
2021/08/06 07:24:15;;;;;;;2.70;1.80;;;;;;;27.81;67.48;95579.13;5005993;28;20066;-56
2021/08/06 07:26:43;;;;;;;7.85;1.90;;;;;;;29.20;60.95;95578.13;5006705;28;20077;-56
2021/08/06 07:29:12;;;;;;;3.45;1.80;;;;;;;28.88;60.91;95585.97;5006272;28;20453;-56
2021/08/06 07:31:42;;;;;;;3.45;1.65;;;;;;;27.48;68.04;95599.47;5007902;28;20077;-56
2021/08/06 07:34:10;;;;;;;4.53;1.67;;;;;;;26.90;85.58;95624.88;5002587;28;20065;-52
2021/08/06 07:36:39;;;;;;;3.95;2.08;;;;;;;24.63;100.00;95657.94;5001446;28;20535;-56
2021/08/06 07:39:07;;;;;;;3.85;1.90;;;;;;;23.65;100.00;95657.69;5007500;28;20646;-54
2021/08/06 07:41:36;;;;;;;3.33;1.70;;;;;;;23.07;100.00;95669.69;5006161;28;20068;-54
2021/08/06 07:44:05;;;;;;;3.83;1.83;;;;;;;22.63;100.00;95672.06;5006446;28;20558;-52
2021/08/06 07:46:33;;;;;;;4.28;1.80;;;;;;;21.52;100.00;95680.16;5005541;28;20128;-51
2021/08/06 07:49:03;;;;;;;3.00;2.38;;;;;;;21.09;100.00;95699.19;5007092;28;20079;-52
2021/08/06 07:51:32;;;;;;;3.80;1.88;;;;;;;20.98;100.00;95698.09;5010167;28;20073;-51
2021/08/06 07:54:02;;;;;;;6.03;2.70;;;;;;;21.33;100.00;95692.00;5007901;28;20081;-54
2021/08/06 07:56:30;;;;;;;3.22;2.20;;;;;;;20.57;100.00;95696.19;5010309;28;20073;-53
2021/08/06 07:58:59;;;;;;;3.00;2.17;;;;;;;21.92;100.00;95665.22;5014204;28;20465;-53
2021/08/06 08:01:28;;;;;;;4.00;2.10;;;;;;;22.01;100.00;95675.34;5010921;28;20073;-54
2021/08/06 08:03:56;;;;;;;3.25;2.30;;;;;;;21.38;100.00;95676.06;5010818;28;20077;-54
2021/08/06 08:06:26;;;;;;;2.88;2.10;;;;;;;21.57;100.00;95684.81;5011153;28;20072;-53
2021/08/06 08:08:54;;;;;;;4.88;2.40;;;;;;;21.83;100.00;95685.44;5013929;28;20073;-58
2021/08/06 08:11:23;;;;;;;3.90;2.33;;;;;;;21.47;100.00;95687.25;4997417;28;20081;-57
2021/08/06 08:13:51;;;;;;;3.47;2.08;;;;;;;22.41;100.00;95687.22;4995648;28;20092;-52
2021/08/06 08:16:20;;;;;;;3.30;2.42;;;;;;;22.13;100.00;95677.22;5008043;28;20088;-52
2021/08/06 08:18:48;;;;;;;2.95;2.42;;;;;;;22.32;100.00;95675.22;5008955;28;20175;-53
2021/08/06 08:21:17;;;;;;;4.63;2.47;;;;;;;22.33;100.00;95680.34;5009169;28;20066;-54
2021/08/06 08:23:47;;;;;;;3.65;2.42;;;;;;;22.33;100.00;95677.66;5008705;28;20080;-53
2021/08/06 08:26:16;;;;;;;4.82;2.60;;;;;;;23.37;100.00;95671.25;5010453;28;20065;-55
2021/08/06 08:28:44;;;;;;;4.00;2.60;;;;;;;24.11;100.00;95671.81;5009845;28;20116;-53
2021/08/06 08:31:13;;;;;;;2.92;2.20;;;;;;;24.12;100.00;95678.03;5008898;28;20066;-54
2021/08/06 08:33:41;;;;;;;3.75;2.20;;;;;;;23.94;100.00;95676.44;5003068;28;20171;-53
2021/08/06 08:36:10;;;;;;;3.83;2.40;;;;;;;25.34;100.00;95660.53;5004442;28;20077;-57
2021/08/06 08:38:38;;;;;;;3.08;2.25;;;;;;;25.62;100.00;95677.50;5008557;28;20069;-56
2021/08/06 08:41:08;;;;;;;2.97;2.00;;;;;;;26.31;100.00;95679.28;5009674;28;20034;-58
2021/08/06 08:43:40;;;;;;;4.65;1.88;;;;;;;25.96;100.00;95674.53;5014017;28;20546;-54
2021/08/06 08:46:09;;;;;;;3.25;1.98;;;;;;;26.18;100.00;95675.16;5011972;28;20500;-55
2021/08/06 08:48:38;;;;;;;4.07;2.13;;;;;;;27.28;93.21;95670.69;5013810;28;20080;-54
2021/08/06 08:51:07;;;;;;;3.15;2.20;;;;;;;27.58;93.96;95665.28;5016560;28;20533;-55
2021/08/06 08:53:36;;;;;;;2.70;1.90;;;;;;;27.47;92.52;95669.06;5011480;28;20061;-54
2021/08/06 08:56:05;;;;;;;4.15;1.92;;;;;;;26.27;100.00;95664.69;5011413;28;20464;-58
2021/08/06 08:58:38;;;;;;;2.40;1.95;;;;;;;26.47;100.00;95661.28;5013792;28;20065;-57
2021/08/06 09:01:07;;;;;;;3.33;2.20;;;;;;;27.42;96.03;95663.66;5009823;28;20063;-58
2021/08/06 09:03:39;;;;;;;4.63;2.35;;;;;;;26.63;100.00;95670.25;5005780;28;20096;-58
2021/08/06 09:06:08;;;;;;;3.15;2.10;;;;;;;27.20;96.99;95659.31;5008451;28;20464;-57
2021/08/06 09:08:38;;;;;;;7.20;2.60;;;;;;;26.44;100.00;95664.50;5006189;28;20640;-53
2021/08/06 09:11:26;;;;;;;6.45;2.17;;;;;;;26.70;100.00;95665.41;5007518;28;20069;-55
2021/08/06 09:14:16;;;;;;;3.10;2.13;;;;;;;27.01;100.00;95654.66;5004743;28;20848;-53
2021/08/06 09:16:59;;;;;;;3.88;1.98;;;;;;;27.67;95.86;95660.13;5014621;28;20060;-55
2021/08/06 09:19:29;;;;;;;3.03;2.08;;;;;;;26.93;100.00;95661.41;5009068;28;20441;-55
2021/08/06 09:22:25;;;;;;;3.53;2.40;;;;;;;26.22;100.00;95664.66;5005221;28;20151;-53
2021/08/06 09:25:07;;;;;;;;;;;;;;;26.77;100.00;95662.44;4953553;28;20080;-58
2021/08/06 09:27:38;;;;;;;4.20;2.15;;;;;;;26.99;100.00;95661.16;5005459;28;19952;-58
2021/08/06 09:30:09;;;;;;;;;;;;;;;27.87;90.09;95662.84;5006382;28;20530;-55
2021/08/06 09:32:50;;;;;;;2.33;1.85;;;;;;;27.96;78.42;95659.56;5009114;28;20011;-55
2021/08/06 09:35:21;;;;;;;2.30;1.80;;;;;;;28.03;83.67;95657.38;5005847;28;20065;-59
2021/08/06 09:37:50;;;;;;;1.90;1.70;;;;;;;27.87;93.91;95652.00;5009715;28;20077;-57
2021/08/06 09:40:21;;;;;;;1.93;1.60;;;;;;;27.38;93.25;95655.25;5004759;28;20077;-52
2021/08/06 09:42:53;;;;;;;;;;;;;;;26.03;100.00;95656.19;5006139;28;20057;-57
2021/08/06 09:45:25;;;;;;;2.13;1.63;;;;;;;26.47;100.00;95661.28;5006913;28;19972;-56
2021/08/06 09:47:57;;;;;;;1.70;1.40;;;;;;;24.88;100.00;95651.19;5005078;28;20057;-59
2021/08/06 09:50:32;;;;;;;2.40;1.40;;;;;;;25.29;100.00;95668.63;5005823;28;20463;-60
2021/08/06 09:53:01;;;;;;;2.33;1.50;;;;;;;26.55;100.00;95668.06;4996337;28;20104;-54
2021/08/06 09:55:32;;;;;;;1.85;1.52;;;;;;;26.39;100.00;95659.84;5008969;28;20497;-57
2021/08/06 09:58:02;;;;;;;1.55;1.45;;;;;;;26.37;100.00;95659.31;5007386;28;20070;-57
2021/08/06 10:00:40;;;;;;;3.53;1.65;;;;;;;26.80;99.16;95659.22;5005870;28;20826;-59
2021/08/06 10:03:26;;;;;;;2.17;1.30;;;;;;;25.75;100.00;95651.94;5005567;28;20467;-57
2021/08/06 10:06:08;;;;;;;1.48;1.13;;;;;;;27.26;100.00;95662.03;5013518;28;20069;-56
2021/08/06 10:08:38;;;;;;;1.98;1.33;;;;;;;26.92;100.00;95662.50;5009377;28;20073;-53
2021/08/06 10:11:06;;;;;;;1.73;1.40;;;;;;;25.84;100.00;95657.69;5010139;28;20070;-58
2021/08/06 10:13:35;;;;;;;1.50;1.40;;;;;;;27.29;99.49;95650.66;5010139;28;20374;-60
2021/08/06 10:16:06;;;;;;;4.88;1.38;;;;;;;26.97;94.30;95641.66;5010559;28;20077;-53
2021/08/06 10:18:34;;;;;;;3.25;1.20;;;;;;;27.58;87.92;95646.31;5011773;28;20061;-53
2021/08/06 10:21:03;;;;;;;2.00;1.55;;;;;;;27.96;94.92;95648.72;5008440;28;20069;-55
2021/08/06 10:23:32;;;;;;;1.83;1.50;;;;;;;28.30;83.93;95647.00;4987708;28;20065;-62
2021/08/06 10:26:03;;;;;;;2.07;1.50;;;;;;;28.06;81.58;95644.09;4996069;28;20084;-53
2021/08/06 10:28:32;;;;;;;2.90;1.40;;;;;;;26.59;92.42;95636.72;5005460;28;20516;-50
2021/08/06 10:34:05;;;;;;;1.85;1.50;;;;;;;26.90;92.40;95627.56;5042995;27;20618;-54
2021/08/06 10:36:41;;;;;;;2.10;1.40;;;;;;;26.38;81.12;95622.28;5034727;28;20103;-52
2021/08/06 10:39:41;;;;;;;2.13;1.52;;;;;;;26.34;87.85;95626.59;5034354;28;20066;-54
2021/08/06 10:42:10;;;;;;;;;;;;;;;25.79;89.58;95624.16;5029796;28;20575;-54
2021/08/06 10:44:53;;;;;;;3.58;1.38;;;;;;;26.17;81.37;95603.28;5034010;28;19957;-56
2021/08/06 10:47:22;;;;;;;2.90;1.48;;;;;;;27.04;78.32;95617.03;5017251;28;20465;-50
2021/08/06 10:50:16;;;;;;;2.05;1.45;;;;;;;27.83;74.57;95602.13;5023000;28;20089;-53
2021/08/06 10:52:44;;;;;;;2.53;1.33;;;;;;;26.57;74.39;95609.94;5043573;28;20073;-52
2021/08/06 10:55:17;;;;;;;2.10;1.48;;;;;;;27.31;72.51;95611.41;5024150;28;20081;-55
2021/08/06 10:57:46;;;;;;;2.30;1.55;;;;;;;27.40;68.19;95608.97;5026087;28;20081;-54
2021/08/06 11:00:34;;;;;;;2.20;1.30;;;;;;;27.08;65.91;95607.31;5028992;28;20083;-50
2021/08/06 11:03:03;;;;;;;2.28;1.33;;;;;;;26.87;73.36;95597.53;5035348;28;20061;-55
2021/08/06 11:05:42;;;;;;;3.03;1.48;;;;;;;26.83;72.82;95602.69;5022304;28;20076;-57
2021/08/06 11:08:44;;;;;;;1.42;1.23;;;;;;;26.88;70.82;95604.59;5026066;28;20081;-55
2021/08/06 11:11:42;;;;;;;3.60;1.58;;;;;;;27.30;65.68;95598.16;5036165;28;20515;-56
2021/08/06 11:14:11;;;;;;;2.85;1.50;;;;;;;27.11;68.02;95600.53;5017079;28;20103;-55
2021/08/06 11:17:02;;;;;;;2.00;1.40;;;;;;;27.00;69.25;95599.72;5046014;28;20087;-51
2021/08/06 11:19:32;;;;;;;1.83;1.30;;;;;;;26.49;68.63;95602.34;5020993;28;20496;-53
2021/08/06 11:22:06;;;;;;;1.77;1.30;;;;;;;26.26;71.48;95603.59;5019640;28;20076;-54
2021/08/06 11:24:37;;;;;;;1.75;1.30;;;;;;;26.83;67.57;95602.69;5029024;28;20506;-54
2021/08/06 11:27:05;;;;;;;2.35;1.50;;;;;;;26.63;69.32;95598.03;5039475;28;20068;-55
2021/08/06 11:29:34;;;;;;;22.30;20.35;;;;;;;26.70;74.75;95590.50;5034997;27;20092;-54
2021/08/06 11:32:05;;;;;;;2.13;1.58;;;;;;;27.73;61.44;95590.50;5042238;28;20095;-55
2021/08/06 11:34:53;;;;;;;3.97;1.65;;;;;;;26.73;70.78;95583.72;5054448;28;20066;-57
2021/08/06 11:37:24;;;;;;;1.85;1.38;;;;;;;26.73;70.56;95581.81;5043744;28;20060;-50
2021/08/06 11:40:17;;;;;;;1.52;1.33;;;;;;;26.54;65.91;95588.03;5046597;28;20069;-55
2021/08/06 11:42:47;;;;;;;3.50;1.40;;;;;;;26.96;67.86;95590.53;5029219;28;20065;-56
2021/08/06 11:45:17;;;;;;;3.60;1.55;;;;;;;26.03;76.16;95588.63;5036296;28;20601;-56
2021/08/06 11:47:46;;;;;;;;;;;;;;;26.32;78.17;95589.00;5038223;28;20079;-55